Terminal Aerodrome Forecast
Issued by NWS Northern Indiana

Home | Current Version | Previous Version | Graphics & Text | Print | Product List | Glossary On
Versions: 1 2 3 4 5 6 7 8 9 10 11 12 13 14 15 16 17
727
FTUS43 KIWX 081139
TAFFWA
TAF
KFWA 081139Z 0812/0912 25010KT P6SM SCT040 OVC080
     FM081400 26009KT P6SM OVC025
     FM081800 29012G17KT 3SM -SHSN OVC025
      TEMPO 0820/0824 2SM -SHSN OVC020
     FM090000 29011KT P6SM VCSH OVC025
     FM090900 29012KT 2SM -SHSN OVC015=

USA.gov is the U.S. government's official web portal to all federal, state and local government web resources and services.